This is the latest recevied weather packets stored in our database for station/object DL0GY-13. If no packets are shown the sender has not sent any weather packets the latest 10 day(s).
| Time | Temp. | Humidity | Pressure | Rain* | Wind** | Luminosity | Snow |
|---|---|---|---|---|---|---|---|
| 1777725033 | 28.33° C | 36% | 1015.8 hPa | 0 mm | - | - | - |
| 1777724433 | 30.56° C | 34% | 1015.8 hPa | 0 mm | - | - | - |
| 1777723233 | 33.89° C | 31% | 1016 hPa | 0 mm | - | - | - |
| 1777720233 | 32.78° C | 31% | 1016.8 hPa | 0 mm | - | - | - |
| 1777719633 | 31.67° C | 32% | 1016.8 hPa | 0 mm | - | - | - |
| 1777719033 | 31.67° C | 31% | 1017 hPa | 0 mm | - | - | - |
| 1777718433 | 32.22° C | 31% | 1017 hPa | 0 mm | - | - | - |
| 1777717833 | 31.67° C | 31% | 1017.3 hPa | 0 mm | - | - | - |
| 1777717233 | 32.22° C | 31% | 1017.4 hPa | 0 mm | - | - | - |
| 1777716633 | 32.78° C | 30% | 1017.4 hPa | 0 mm | - | - | - |
| 1777716033 | 30.56° C | 33% | 1017.6 hPa | 0 mm | - | - | - |
| 1777715433 | 28.33° C | 34% | 1017.8 hPa | 0 mm | - | - | - |
| 1777714833 | 29.44° C | 33% | 1017.8 hPa | 0 mm | - | - | - |
| 1777714233 | 28.33° C | 33% | 1018 hPa | 0 mm | - | - | - |
| 1777713633 | 29.44° C | 32% | 1017.9 hPa | 0 mm | - | - | - |
| 1777713033 | 28.33° C | 33% | 1018 hPa | 0 mm | - | - | - |
| 1777712433 | 25° C | 35% | 1018.1 hPa | 0 mm | - | - | - |
| 1777711833 | 26.67° C | 33% | 1018 hPa | 0 mm | - | - | - |
| 1777711233 | 26.67° C | 31% | 1018.1 hPa | 0 mm | - | - | - |
| 1777710633 | 28.89° C | 29% | 1018.2 hPa | 0 mm | - | - | - |
| 1777710033 | 29.44° C | 28% | 1018.1 hPa | 0 mm | - | - | - |
| 1777709433 | 30.56° C | 28% | 1018.1 hPa | 0 mm | - | - | - |
| 1777708834 | 30° C | 28% | 1018.2 hPa | 0 mm | - | - | - |
| 1777707633 | 30° C | 28% | 1018.5 hPa | 0 mm | - | - | - |
| 1777707033 | 30° C | 29% | 1018.3 hPa | 0 mm | - | - | - |
* Rain latest hour (hover to see other rain measurements)
** Current wind speed in m/s (hover to see current wind gust speed)